createdAt,value
2018-12-03T00:00:50.355Z,87.16
2018-12-03T00:03:20.107Z,87.46
2018-12-03T00:05:49.481Z,87.04
2018-12-03T00:08:18.410Z,86.85
2018-12-03T00:10:47.608Z,86.59
2018-12-03T00:13:16.915Z,85.86
2018-12-03T00:15:46.091Z,85.94
2018-12-03T00:18:15.268Z,85.90
2018-12-03T00:20:44.431Z,85.87
2018-12-03T00:23:13.560Z,85.90
2018-12-03T00:25:42.463Z,85.98
2018-12-03T00:28:11.722Z,85.98
2018-12-03T00:30:41.026Z,85.90
2018-12-03T00:33:10.136Z,86.03
2018-12-03T00:35:39.388Z,86.38
2018-12-03T00:38:08.560Z,86.46
2018-12-03T00:40:37.525Z,86.30
2018-12-03T00:43:06.889Z,86.53
2018-12-03T00:45:35.861Z,86.57
2018-12-03T00:48:05.060Z,86.77
2018-12-03T00:50:34.459Z,87.09
2018-12-03T00:53:03.906Z,86.93
2018-12-03T00:55:33.247Z,86.71
2018-12-03T00:58:02.452Z,86.64
2018-12-03T01:00:31.739Z,86.37
2018-12-03T01:03:01.183Z,87.04
2018-12-03T01:05:30.175Z,87.17
2018-12-03T01:07:59.479Z,87.46
2018-12-03T01:10:28.795Z,87.68
2018-12-03T01:12:58.108Z,87.34
2018-12-03T01:15:27.240Z,86.91
2018-12-03T01:17:56.476Z,86.77
2018-12-03T01:20:25.562Z,86.76
2018-12-03T01:22:54.395Z,86.41
2018-12-03T01:25:23.596Z,86.38
2018-12-03T01:27:52.919Z,86.50
2018-12-03T01:30:21.847Z,86.73
2018-12-03T01:32:51.307Z,86.85
2018-12-03T01:35:20.558Z,87.21
2018-12-03T01:37:49.912Z,86.91
2018-12-03T01:40:18.815Z,86.83
2018-12-03T01:42:47.779Z,86.73
2018-12-03T01:45:17.160Z,86.56
2018-12-03T01:47:46.187Z,86.95
2018-12-03T01:50:15.435Z,87.39
2018-12-03T01:52:44.823Z,87.50
2018-12-03T01:55:13.987Z,87.58
2018-12-03T01:57:43.452Z,87.83
2018-12-03T02:00:16.840Z,87.81
2018-12-03T02:02:46.123Z,87.82
2018-12-03T02:05:15.835Z,87.83
2018-12-03T02:07:44.936Z,87.79
2018-12-03T02:10:15.790Z,87.75
2018-12-03T02:12:44.987Z,87.91
2018-12-03T02:15:15.409Z,88.38
2018-12-03T02:17:44.810Z,88.42
2018-12-03T02:20:16.003Z,88.25
2018-12-03T02:22:45.331Z,88.24
2018-12-03T02:25:14.628Z,88.18
2018-12-03T02:27:43.849Z,88.06
2018-12-03T02:30:18.065Z,87.95
2018-12-03T02:32:47.273Z,88.00
2018-12-03T02:35:16.548Z,87.91
2018-12-03T02:37:45.675Z,87.84
2018-12-03T02:40:16.008Z,87.56
2018-12-03T02:42:45.359Z,87.26
2018-12-03T02:45:15.193Z,87.29
2018-12-03T02:47:44.375Z,87.16
2018-12-03T02:50:14.770Z,87.84
2018-12-03T02:52:43.910Z,87.35
2018-12-03T02:55:13.959Z,87.14
2018-12-03T02:57:43.201Z,87.30
2018-12-03T03:00:15.579Z,87.42
2018-12-03T03:02:45.132Z,87.09
2018-12-03T03:05:15.220Z,87.46
2018-12-03T03:07:44.485Z,87.37
2018-12-03T03:10:16.198Z,87.53
2018-12-03T03:12:45.376Z,87.46
2018-12-03T03:15:15.442Z,87.37
2018-12-03T03:17:44.588Z,87.94
2018-12-03T03:20:14.285Z,87.69
2018-12-03T03:22:43.683Z,87.61
2018-12-03T03:25:12.981Z,87.85
2018-12-03T03:27:42.228Z,87.61
2018-12-03T03:30:13.013Z,87.29
2018-12-03T03:32:42.766Z,87.35
2018-12-03T03:35:13.077Z,86.63
2018-12-03T03:37:42.403Z,86.54
2018-12-03T03:40:13.744Z,86.30
2018-12-03T03:42:43.329Z,86.38
2018-12-03T03:45:14.197Z,86.38
2018-12-03T03:47:43.490Z,86.60
2018-12-03T03:50:12.435Z,86.64
2018-12-03T03:52:41.571Z,87.15
2018-12-03T03:55:11.072Z,87.07
2018-12-03T03:57:40.230Z,87.17
2018-12-03T04:00:14.407Z,87.16
2018-12-03T04:02:43.755Z,87.03
2018-12-03T04:05:14.591Z,87.19
2018-12-03T04:07:44.787Z,87.40
2018-12-03T04:10:14.619Z,87.40
2018-12-03T04:12:44.540Z,87.39
2018-12-03T04:15:14.731Z,87.56
2018-12-03T04:17:44.112Z,87.50
2018-12-03T04:20:15.399Z,87.33
2018-12-03T04:22:45.359Z,87.33
2018-12-03T04:25:14.879Z,87.19
2018-12-03T04:27:44.206Z,87.04
2018-12-03T04:30:16.436Z,87.03
2018-12-03T04:32:45.770Z,87.80
2018-12-03T04:35:15.138Z,87.57
2018-12-03T04:37:44.874Z,87.56
2018-12-03T04:40:16.289Z,87.77
2018-12-03T04:42:45.211Z,87.92
2018-12-03T04:45:17.336Z,88.29
2018-12-03T04:47:47.023Z,88.12
2018-12-03T04:50:17.360Z,87.93
2018-12-03T04:52:46.448Z,87.83
2018-12-03T04:55:17.557Z,87.80
2018-12-03T04:57:46.806Z,87.90
2018-12-03T05:00:16.962Z,87.77
2018-12-03T05:02:47.412Z,88.32
2018-12-03T05:05:16.702Z,88.34
2018-12-03T05:07:46.051Z,88.68
2018-12-03T05:10:18.160Z,88.64
2018-12-03T05:12:49.319Z,88.61
2018-12-03T05:15:18.406Z,88.39
2018-12-03T05:17:47.594Z,88.04
2018-12-03T05:20:19.657Z,88.15
2018-12-03T05:22:49.054Z,88.33
2018-12-03T05:25:19.383Z,88.27
2018-12-03T05:27:47.507Z,88.12
2018-12-03T05:30:17.600Z,87.98
2018-12-03T05:32:47.039Z,87.68
2018-12-03T05:35:20.991Z,87.73
2018-12-03T05:37:50.182Z,87.98
2018-12-03T05:40:21.953Z,87.71
2018-12-03T05:42:51.207Z,87.57
2018-12-03T05:45:20.462Z,87.70
2018-12-03T05:47:49.913Z,87.76
2018-12-03T05:50:19.098Z,87.82
2018-12-03T05:52:48.415Z,87.64
2018-12-03T05:55:17.356Z,87.43
2018-12-03T05:57:46.532Z,87.50
2018-12-03T06:00:24.295Z,87.68
2018-12-03T06:02:53.406Z,87.63
2018-12-03T06:05:22.518Z,87.52
2018-12-03T06:07:51.423Z,87.41
2018-12-03T06:10:21.562Z,87.45
2018-12-03T06:12:50.919Z,87.53
2018-12-03T06:15:20.715Z,87.61
2018-12-03T06:17:52.405Z,87.76
2018-12-03T06:20:22.224Z,88.02
2018-12-03T06:22:52.563Z,88.07
2018-12-03T06:25:29.235Z,88.24
2018-12-03T06:27:58.659Z,88.31
2018-12-03T06:30:28.471Z,88.48
2018-12-03T06:32:57.676Z,88.26
2018-12-03T06:35:26.704Z,87.95
2018-12-03T06:37:55.946Z,87.69
2018-12-03T06:40:27.213Z,87.56
2018-12-03T06:42:56.491Z,87.46
2018-12-03T06:45:26.316Z,87.35
2018-12-03T06:48:12.855Z,87.55
2018-12-03T06:50:42.163Z,87.70
2018-12-03T06:53:11.307Z,88.04
2018-12-03T06:55:40.339Z,87.83
2018-12-03T06:58:09.604Z,87.19
2018-12-03T07:00:38.851Z,87.13
2018-12-03T07:03:08.088Z,86.89
2018-12-03T07:05:37.132Z,86.36
2018-12-03T07:08:07.435Z,87.00
2018-12-03T07:10:36.570Z,86.64
2018-12-03T07:13:08.367Z,86.26
2018-12-03T07:15:39.220Z,85.63
2018-12-03T07:18:09.312Z,85.27
2018-12-03T07:20:38.681Z,84.11
2018-12-03T07:23:07.618Z,83.43
2018-12-03T07:25:36.535Z,82.73
2018-12-03T07:28:05.858Z,82.76
2018-12-03T07:30:34.748Z,82.82
2018-12-03T07:33:03.895Z,82.31
2018-12-03T07:35:32.935Z,82.52
2018-12-03T07:38:01.794Z,82.94
2018-12-03T07:40:30.826Z,83.22
2018-12-03T07:42:59.998Z,83.45
2018-12-03T07:45:29.057Z,83.39
2018-12-03T07:47:58.191Z,82.83
2018-12-03T07:50:27.239Z,82.67
2018-12-03T07:52:56.488Z,82.97
2018-12-03T07:55:26.689Z,82.61
2018-12-03T07:57:59.496Z,82.17
2018-12-03T08:00:31.252Z,81.03
2018-12-03T08:03:00.084Z,80.27
2018-12-03T08:05:29.258Z,79.58
2018-12-03T08:07:58.348Z,79.38
2018-12-03T08:10:27.328Z,79.24
2018-12-03T08:12:56.392Z,78.90
2018-12-03T08:15:25.721Z,78.54
2018-12-03T08:18:02.018Z,78.03
2018-12-03T08:20:53.604Z,77.29
2018-12-03T08:23:26.015Z,76.62
2018-12-03T08:25:54.859Z,75.81
2018-12-03T08:28:23.756Z,74.50
2018-12-03T08:30:52.951Z,72.31
2018-12-03T08:33:22.105Z,70.67
2018-12-03T08:35:51.040Z,69.90
2018-12-03T08:38:20.235Z,69.12
2018-12-03T08:40:49.743Z,67.30
2018-12-03T08:43:18.935Z,65.70
2018-12-03T08:45:47.984Z,65.29
2018-12-03T08:48:16.889Z,64.90
2018-12-03T08:50:47.555Z,64.37
2018-12-03T08:53:17.042Z,64.20
2018-12-03T08:55:46.050Z,64.39
2018-12-03T08:58:15.947Z,64.70
2018-12-03T09:00:46.599Z,65.11
2018-12-03T09:03:25.316Z,65.52
2018-12-03T09:05:54.115Z,66.83
2018-12-03T09:08:23.314Z,67.84
2018-12-03T09:10:52.456Z,69.19
2018-12-03T09:13:22.824Z,68.92
2018-12-03T09:16:00.035Z,69.06
2018-12-03T09:18:38.683Z,67.43
2018-12-03T09:21:14.616Z,67.72
2018-12-03T09:23:44.712Z,66.31
2018-12-03T09:26:14.234Z,66.74
2018-12-03T09:28:43.412Z,65.23
2018-12-03T09:31:20.433Z,64.56
2018-12-03T09:34:00.428Z,62.33
2018-12-03T09:36:29.857Z,60.21
2018-12-03T09:39:11.012Z,58.88
2018-12-03T09:41:40.610Z,56.66
2018-12-03T09:44:09.944Z,54.23
2018-12-03T09:46:39.164Z,53.79
2018-12-03T09:49:08.695Z,52.47
2018-12-03T09:51:38.266Z,51.42
2018-12-03T09:54:10.696Z,52.07
2018-12-03T09:56:48.851Z,49.90
2018-12-03T09:59:21.627Z,51.47
2018-12-03T10:01:52.331Z,50.72
2018-12-03T10:04:40.479Z,49.66
2018-12-03T10:07:09.102Z,49.34
2018-12-03T10:09:40.931Z,47.94
2018-12-03T10:12:10.535Z,48.80
2018-12-03T10:14:39.749Z,46.99
2018-12-03T10:17:09.575Z,46.38
2018-12-03T10:19:38.724Z,46.31
2018-12-03T10:22:08.539Z,43.55
2018-12-03T10:24:37.836Z,42.89
2018-12-03T10:27:10.175Z,41.93
2018-12-03T10:29:39.396Z,41.14
2018-12-03T10:32:08.627Z,39.51
2018-12-03T10:34:37.691Z,38.80
2018-12-03T10:37:06.929Z,37.67
2018-12-03T10:39:37.207Z,37.02
2018-12-03T10:42:14.341Z,35.40
2018-12-03T10:44:43.475Z,36.50
2018-12-03T10:47:12.627Z,35.68
2018-12-03T10:49:41.659Z,34.71
2018-12-03T10:52:11.009Z,36.03
2018-12-03T10:54:41.968Z,34.97
2018-12-03T10:57:11.858Z,34.72
2018-12-03T10:59:41.207Z,32.83
2018-12-03T11:02:15.532Z,33.20
2018-12-03T11:04:49.720Z,31.03
2018-12-03T11:07:18.856Z,30.93
2018-12-03T11:09:48.063Z,29.88
2018-12-03T11:12:17.091Z,30.32
2018-12-03T11:14:46.352Z,29.97
2018-12-03T11:17:15.488Z,29.30
2018-12-03T11:19:47.963Z,28.79
2018-12-03T11:22:22.751Z,27.24
2018-12-03T11:24:51.846Z,27.10
2018-12-03T11:27:21.657Z,27.08
2018-12-03T11:29:50.583Z,26.70
2018-12-03T11:32:21.408Z,27.51
2018-12-03T11:34:50.535Z,27.30
2018-12-03T11:37:21.086Z,26.62
2018-12-03T11:39:55.578Z,25.89
2018-12-03T11:42:29.668Z,25.15
2018-12-03T11:44:58.867Z,25.42
2018-12-03T11:47:28.041Z,24.46
2018-12-03T11:49:57.419Z,23.87
2018-12-03T11:52:26.819Z,23.90
2018-12-03T11:54:55.771Z,24.53
2018-12-03T11:57:25.011Z,24.99
2018-12-03T11:59:54.108Z,23.89
2018-12-03T12:02:23.192Z,22.90
2018-12-03T12:04:52.299Z,23.41
2018-12-03T12:07:21.491Z,23.55
2018-12-03T12:09:50.575Z,22.08
2018-12-03T12:12:19.388Z,22.25
2018-12-03T12:14:48.673Z,24.21
2018-12-03T12:17:17.819Z,24.07
2018-12-03T12:19:46.627Z,27.14
2018-12-03T12:22:15.855Z,26.88
2018-12-03T12:24:44.672Z,26.24
2018-12-03T12:27:13.505Z,25.95
2018-12-03T12:29:42.555Z,25.77
2018-12-03T12:32:11.588Z,25.26
2018-12-03T12:34:40.720Z,24.79
2018-12-03T12:37:09.666Z,25.70
2018-12-03T12:39:38.471Z,24.52
2018-12-03T12:42:07.995Z,25.11
2018-12-03T12:44:37.310Z,24.73
2018-12-03T12:47:07.467Z,24.93
2018-12-03T12:49:36.611Z,25.22
2018-12-03T12:52:05.666Z,26.11
2018-12-03T12:54:34.982Z,26.07
2018-12-03T12:57:03.991Z,27.34
2018-12-03T12:59:33.029Z,29.32
2018-12-03T13:02:01.946Z,30.05
2018-12-03T13:04:31.197Z,29.78
2018-12-03T13:07:00.319Z,31.23
2018-12-03T13:09:29.121Z,31.88
2018-12-03T13:11:58.407Z,34.17
2018-12-03T13:14:27.602Z,36.00
2018-12-03T13:16:56.371Z,37.07
2018-12-03T13:19:25.334Z,36.96
2018-12-03T13:21:54.639Z,37.77
2018-12-03T13:24:23.499Z,39.66
2018-12-03T13:26:52.627Z,40.96
2018-12-03T13:29:21.390Z,42.32
2018-12-03T13:31:50.607Z,44.73
2018-12-03T13:34:19.484Z,46.29
2018-12-03T13:36:48.425Z,47.86
2018-12-03T13:39:17.631Z,50.30
2018-12-03T13:41:46.788Z,51.80
2018-12-03T13:44:15.873Z,53.65
2018-12-03T13:46:45.019Z,55.12
2018-12-03T13:49:13.823Z,56.94
2018-12-03T13:51:43.159Z,57.76
2018-12-03T13:54:11.907Z,58.52
2018-12-03T13:56:41.004Z,59.12
2018-12-03T13:59:10.130Z,60.27
2018-12-03T14:01:39.284Z,61.09
2018-12-03T14:04:11.979Z,62.02
2018-12-03T14:06:46.787Z,62.65
2018-12-03T14:09:30.848Z,63.25
2018-12-03T14:12:35.440Z,63.70
2018-12-03T14:16:17.129Z,64.94
2018-12-03T14:18:51.797Z,66.68
2018-12-03T14:21:28.399Z,67.52
2018-12-03T14:23:59.097Z,67.58
2018-12-03T14:26:28.384Z,67.98
2018-12-03T14:28:57.545Z,68.94
2018-12-03T14:31:26.667Z,68.94
2018-12-03T14:33:55.783Z,69.13
2018-12-03T14:36:24.910Z,69.37
2018-12-03T14:38:54.104Z,70.46
2018-12-03T14:41:23.179Z,71.32
2018-12-03T14:43:52.410Z,71.76
2018-12-03T14:46:21.572Z,72.62
2018-12-03T14:48:50.812Z,73.36
2018-12-03T14:51:19.998Z,74.07
2018-12-03T14:53:49.087Z,74.46
2018-12-03T14:56:18.200Z,75.03
2018-12-03T14:58:47.475Z,75.04
2018-12-03T15:01:16.675Z,75.25
2018-12-03T15:03:45.896Z,75.26
2018-12-03T15:06:14.752Z,74.97
2018-12-03T15:08:43.819Z,75.08
2018-12-03T15:11:12.942Z,75.27
2018-12-03T15:13:42.023Z,75.52
2018-12-03T15:16:11.195Z,76.13
2018-12-03T15:18:39.976Z,76.19
2018-12-03T15:21:09.051Z,76.80
2018-12-03T15:23:38.908Z,77.00
2018-12-03T15:26:08.577Z,77.80
2018-12-03T15:28:37.951Z,77.28
2018-12-03T15:31:07.255Z,77.66
2018-12-03T15:33:36.346Z,77.82
2018-12-03T15:36:05.208Z,77.99
2018-12-03T15:38:34.124Z,78.58
2018-12-03T15:41:03.282Z,78.62
2018-12-03T15:43:32.520Z,78.85
2018-12-03T15:46:01.659Z,78.99
2018-12-03T15:48:30.477Z,79.57
2018-12-03T15:50:59.703Z,79.46
2018-12-03T15:53:28.608Z,79.81
2018-12-03T15:55:57.698Z,80.14
2018-12-03T15:58:26.833Z,79.83
2018-12-03T16:00:55.979Z,79.89
2018-12-03T16:03:25.155Z,79.84
2018-12-03T16:05:54.315Z,79.90
2018-12-03T16:08:23.655Z,80.11
2018-12-03T16:10:52.812Z,80.54
2018-12-03T16:13:22.011Z,80.33
2018-12-03T16:15:50.831Z,80.58
2018-12-03T16:18:19.735Z,80.95
2018-12-03T16:20:49.495Z,81.27
2018-12-03T16:23:18.301Z,81.14
2018-12-03T16:25:47.449Z,81.08
2018-12-03T16:28:16.566Z,81.01
2018-12-03T16:30:45.730Z,81.00
2018-12-03T16:33:14.835Z,81.03
2018-12-03T16:35:43.747Z,80.87
2018-12-03T16:38:12.946Z,80.67
2018-12-03T16:40:42.109Z,80.67
2018-12-03T16:43:11.260Z,80.71
2018-12-03T16:45:40.212Z,80.97
2018-12-03T16:48:09.898Z,80.73
2018-12-03T16:50:38.913Z,80.91
2018-12-03T16:53:08.003Z,81.30
2018-12-03T16:55:37.393Z,81.40
2018-12-03T16:58:06.720Z,81.63
2018-12-03T17:00:35.940Z,81.91
2018-12-03T17:03:04.761Z,82.02
2018-12-03T17:05:33.848Z,82.16
2018-12-03T17:08:02.973Z,82.20
2018-12-03T17:10:32.182Z,82.32
2018-12-03T17:13:01.216Z,82.51
2018-12-03T17:15:30.499Z,82.62
2018-12-03T17:17:59.775Z,82.92
2018-12-03T17:20:52.098Z,82.25
2018-12-03T17:23:35.735Z,82.63
2018-12-03T17:26:04.525Z,83.02
2018-12-03T17:28:33.816Z,83.17
2018-12-03T17:31:03.122Z,83.06
2018-12-03T17:33:32.301Z,82.99
2018-12-03T17:36:01.318Z,83.17
2018-12-03T17:38:30.365Z,83.35
2018-12-03T17:40:59.592Z,83.22
2018-12-03T17:43:28.744Z,83.74
2018-12-03T17:45:57.979Z,83.43
2018-12-03T17:48:27.135Z,83.22
2018-12-03T17:50:56.327Z,83.18
2018-12-03T17:53:25.330Z,82.94
2018-12-03T17:55:54.515Z,83.54
2018-12-03T17:58:23.452Z,83.71
2018-12-03T18:00:52.607Z,83.27
2018-12-03T18:03:21.703Z,83.17
2018-12-03T18:05:50.829Z,83.37
2018-12-03T18:08:20.475Z,83.15
2018-12-03T18:10:49.477Z,83.79
2018-12-03T18:13:19.144Z,83.70
2018-12-03T18:15:48.472Z,83.53
2018-12-03T18:18:17.756Z,83.21
2018-12-03T18:20:47.060Z,83.23
2018-12-03T18:23:15.909Z,83.58
2018-12-03T18:25:45.060Z,83.46
2018-12-03T18:28:14.166Z,83.61
2018-12-03T18:30:43.301Z,83.35
2018-12-03T18:33:12.532Z,83.39
2018-12-03T18:35:41.400Z,83.68
2018-12-03T18:38:10.426Z,83.40
2018-12-03T18:40:39.769Z,83.37
2018-12-03T18:43:09.563Z,83.13
2018-12-03T18:45:39.031Z,83.08
2018-12-03T18:48:09.635Z,82.72
2018-12-03T18:50:40.086Z,83.02
2018-12-03T18:53:28.759Z,83.30
2018-12-03T18:55:57.989Z,83.77
2018-12-03T18:58:35.883Z,83.27
2018-12-03T19:01:04.927Z,83.36
2018-12-03T19:03:34.274Z,83.62
2018-12-03T19:06:04.440Z,83.82
2018-12-03T19:08:33.624Z,83.90
2018-12-03T19:11:02.939Z,84.25
2018-12-03T19:13:31.972Z,84.19
2018-12-03T19:16:01.227Z,84.15
2018-12-03T19:18:30.437Z,84.33
2018-12-03T19:20:59.930Z,84.29
2018-12-03T19:23:29.209Z,84.50
2018-12-03T19:25:58.231Z,84.46
2018-12-03T19:28:27.327Z,84.25
2018-12-03T19:30:56.383Z,84.15
2018-12-03T19:33:25.426Z,84.34
2018-12-03T19:35:55.008Z,84.11
2018-12-03T19:38:24.184Z,84.18
2018-12-03T19:40:53.534Z,84.01
2018-12-03T19:43:22.735Z,84.16
2018-12-03T19:45:53.668Z,84.17
2018-12-03T19:48:22.695Z,84.41
2018-12-03T19:50:51.624Z,84.19
2018-12-03T19:53:20.935Z,84.36
2018-12-03T19:55:50.849Z,84.21
2018-12-03T19:58:27.164Z,84.49
2018-12-03T20:00:56.516Z,84.32
2018-12-03T20:03:25.680Z,84.77
2018-12-03T20:05:54.967Z,84.78
2018-12-03T20:08:24.020Z,84.71
2018-12-03T20:10:53.155Z,84.83
2018-12-03T20:13:22.309Z,85.03
2018-12-03T20:15:51.482Z,84.71
2018-12-03T20:18:20.688Z,84.57
2018-12-03T20:20:56.772Z,84.92
2018-12-03T20:23:31.422Z,85.30
2018-12-03T20:26:10.028Z,85.30
2018-12-03T20:29:07.362Z,85.42
2018-12-03T20:32:01.133Z,85.10
2018-12-03T20:34:54.426Z,85.19
2018-12-03T20:37:31.866Z,85.28
2018-12-03T20:41:10.304Z,85.26
2018-12-03T20:43:40.787Z,85.92
2018-12-03T20:46:16.623Z,86.15
2018-12-03T20:49:00.407Z,86.06
2018-12-03T20:51:41.429Z,86.22
2018-12-03T20:54:10.667Z,85.62
2018-12-03T20:56:39.867Z,85.67
2018-12-03T20:59:08.973Z,85.72
2018-12-03T21:01:42.527Z,85.80
2018-12-03T21:04:11.667Z,85.94
2018-12-03T21:06:40.860Z,86.35
2018-12-03T21:09:09.629Z,86.15
2018-12-03T21:11:38.735Z,86.07
2018-12-03T21:14:07.606Z,85.88
2018-12-03T21:16:36.859Z,86.24
2018-12-03T21:19:06.048Z,86.07
2018-12-03T21:21:34.943Z,85.73
2018-12-03T21:24:03.811Z,85.49
2018-12-03T21:26:33.059Z,85.39
2018-12-03T21:29:01.990Z,84.96
2018-12-03T21:31:31.144Z,84.85
2018-12-03T21:34:00.382Z,84.95
2018-12-03T21:36:29.488Z,84.72
2018-12-03T21:38:58.581Z,84.76
2018-12-03T21:41:27.450Z,84.62
2018-12-03T21:43:56.678Z,84.39
2018-12-03T21:46:25.739Z,84.15
2018-12-03T21:48:54.803Z,84.33
2018-12-03T21:51:24.191Z,84.78
2018-12-03T21:53:53.270Z,84.92
2018-12-03T21:56:22.036Z,85.05
2018-12-03T21:58:51.238Z,85.32
2018-12-03T22:01:20.379Z,85.34
2018-12-03T22:03:49.491Z,85.41
2018-12-03T22:06:18.820Z,85.67
2018-12-03T22:08:47.975Z,85.69
2018-12-03T22:11:17.212Z,85.50
2018-12-03T22:13:46.417Z,85.42
2018-12-03T22:16:15.222Z,85.30
2018-12-03T22:18:44.403Z,85.62
2018-12-03T22:21:13.415Z,85.91
2018-12-03T22:23:42.644Z,85.84
2018-12-03T22:26:11.783Z,86.07
2018-12-03T22:28:40.847Z,86.29
2018-12-03T22:31:09.816Z,86.04
2018-12-03T22:33:38.982Z,85.60
2018-12-03T22:36:08.172Z,85.22
2018-12-03T22:38:37.368Z,85.84
2018-12-03T22:41:06.495Z,85.39
2018-12-03T22:43:35.633Z,85.65
2018-12-03T22:46:04.783Z,85.89
2018-12-03T22:48:33.647Z,85.93
2018-12-03T22:51:02.740Z,85.74
2018-12-03T22:53:31.746Z,85.55
2018-12-03T22:56:00.866Z,85.41
2018-12-03T22:58:29.830Z,85.58
2018-12-03T23:01:03.233Z,85.56
2018-12-03T23:03:32.452Z,85.76
2018-12-03T23:06:01.643Z,85.62
2018-12-03T23:08:30.875Z,85.96
2018-12-03T23:10:59.918Z,85.77
2018-12-03T23:13:29.016Z,85.58
2018-12-03T23:15:58.138Z,85.61
2018-12-03T23:18:27.111Z,85.71
2018-12-03T23:20:56.109Z,85.66
2018-12-03T23:23:25.226Z,85.84
2018-12-03T23:25:54.384Z,85.57
2018-12-03T23:28:23.578Z,85.81
2018-12-03T23:30:52.926Z,85.77
2018-12-03T23:33:22.098Z,85.81
2018-12-03T23:35:50.872Z,85.93
2018-12-03T23:38:19.935Z,86.22
2018-12-03T23:40:49.157Z,86.71
2018-12-03T23:43:18.455Z,86.70
2018-12-03T23:45:47.276Z,87.16
2018-12-03T23:48:16.441Z,86.98
2018-12-03T23:50:45.427Z,87.24
2018-12-03T23:53:14.319Z,86.86
2018-12-03T23:55:43.281Z,86.74
2018-12-03T23:58:12.483Z,86.58
